Time;durP1;ratioP1;P1;durP2;ratioP2;P2;SDS_P1;SDS_P2;PMS_P1;PMS_P2;Temp;Humidity;BMP_temperature;BMP_pressure;BME280_temperature;BME280_humidity;BME280_pressure;Samples;Min_cycle;Max_cycle;Signal;HPM_P1;HPM_P2
2022/09/24 00:01:15;;;;;;;2.63;1.55;;;;;;;;;;5008718;28;20030;-66
2022/09/24 00:03:46;;;;;;;3.63;1.45;;;;;;;;;;5006006;28;20038;-65
2022/09/24 00:06:13;;;;;;;3.03;1.67;;;;;;;;;;5010446;28;20425;-65
2022/09/24 00:08:39;;;;;;;2.88;1.38;;;;;;;;;;5008734;28;20034;-66
2022/09/24 00:11:06;;;;;;;3.53;1.55;;;;;;;;;;5005293;28;20025;-65
2022/09/24 00:13:34;;;;;;;6.53;1.70;;;;;;;;;;5009093;28;20034;-65
2022/09/24 00:16:06;;;;;;;2.25;1.30;;;;;;;;;;5009450;28;20614;-65
2022/09/24 00:18:32;;;;;;;3.83;1.58;;;;;;;;;;5005247;28;20033;-65
2022/09/24 00:20:58;;;;;;;6.03;1.65;;;;;;;;;;5004773;28;20076;-65
2022/09/24 00:23:24;;;;;;;1.77;1.67;;;;;;;;;;5009950;28;20453;-65
2022/09/24 00:28:34;;;;;;;3.42;1.30;;;;;;;;;;5006305;28;20403;-65
2022/09/24 00:31:05;;;;;;;6.38;1.30;;;;;;;;;;5004158;28;20026;-65
2022/09/24 00:33:34;;;;;;;2.75;1.55;;;;;;;;;;5007289;28;20080;-64
2022/09/24 00:36:03;;;;;;;4.43;1.60;;;;;;;;;;5005629;28;20022;-65
2022/09/24 00:38:31;;;;;;;3.42;1.55;;;;;;;;;;5006808;28;20056;-65
2022/09/24 00:40:58;;;;;;;1.70;1.13;;;;;;;;;;5005320;28;20058;-64
2022/09/24 00:43:28;;;;;;;4.35;1.42;;;;;;;;;;5008920;28;20419;-65
2022/09/24 00:46:06;;;;;;;6.78;1.67;;;;;;;;;;5008280;28;20079;-65
2022/09/24 00:48:33;;;;;;;6.45;1.60;;;;;;;;;;5008722;28;20547;-64
2022/09/24 00:51:00;;;;;;;5.13;1.60;;;;;;;;;;5005943;28;20104;-63
2022/09/24 00:53:31;;;;;;;15.98;1.92;;;;;;;;;;5007757;28;20041;-63
2022/09/24 00:55:58;;;;;;;3.92;1.70;;;;;;;;;;4993029;28;20415;-63
2022/09/24 00:58:25;;;;;;;5.05;1.50;;;;;;;;;;4992147;28;20030;-62
2022/09/24 01:00:56;;;;;;;6.93;1.60;;;;;;;;;;4993075;28;20048;-61
2022/09/24 01:03:24;;;;;;;7.25;2.58;;;;;;;;;;4990159;28;20026;-61
2022/09/24 01:05:50;;;;;;;2.72;1.60;;;;;;;;;;4988731;28;20041;-61
2022/09/24 01:08:18;;;;;;;4.55;1.70;;;;;;;;;;4989442;28;20034;-61
2022/09/24 01:11:03;;;;;;;2.78;1.63;;;;;;;;;;5007363;28;20053;-60
2022/09/24 01:13:39;;;;;;;4.22;1.80;;;;;;;;;;5008159;28;20406;-60
2022/09/24 01:16:13;;;;;;;8.70;2.03;;;;;;;;;;5005608;28;20052;-58
2022/09/24 01:19:17;;;;;;;4.82;2.17;;;;;;;;;;5007900;28;20040;-59
2022/09/24 01:21:55;;;;;;;3.42;1.65;;;;;;;;;;5002065;28;20534;-58
2022/09/24 01:24:30;;;;;;;4.80;2.15;;;;;;;;;;4989567;28;20061;-58
2022/09/24 01:27:13;;;;;;;5.00;1.98;;;;;;;;;;4978498;28;20070;-58
2022/09/24 01:29:45;;;;;;;3.63;2.08;;;;;;;;;;4991971;28;20042;-59
2022/09/24 01:32:37;;;;;;;3.50;1.88;;;;;;;;;;4996077;28;20129;-59
2022/09/24 01:35:14;;;;;;;4.97;2.10;;;;;;;;;;4997606;28;20042;-59
2022/09/24 01:37:44;;;;;;;8.75;2.78;;;;;;;;;;5002731;28;20104;-59
2022/09/24 01:40:11;;;;;;;6.35;2.20;;;;;;;;;;4998943;28;20087;-57
2022/09/24 01:42:41;;;;;;;9.45;2.78;;;;;;;;;;5001983;28;20037;-56
2022/09/24 01:45:08;;;;;;;5.95;2.40;;;;;;;;;;5000332;28;20154;-56
2022/09/24 01:47:38;;;;;;;5.22;2.63;;;;;;;;;;5002137;28;20050;-56
2022/09/24 01:50:16;;;;;;;4.45;2.20;;;;;;;;;;4999858;28;20046;-58
2022/09/24 01:52:54;;;;;;;5.05;2.30;;;;;;;;;;5000811;28;20034;-58
2022/09/24 01:55:24;;;;;;;5.03;2.25;;;;;;;;;;4984729;28;20600;-59
2022/09/24 01:58:10;;;;;;;7.53;3.38;;;;;;;;;;4982997;28;20458;-58
2022/09/24 02:00:41;;;;;;;5.78;2.50;;;;;;;;;;4998365;28;20051;-58
2022/09/24 02:03:12;;;;;;;3.45;2.22;;;;;;;;;;4985837;28;20073;-58
2022/09/24 02:05:47;;;;;;;4.18;2.20;;;;;;;;;;4988418;28;20045;-58
2022/09/24 02:08:35;;;;;;;5.28;2.35;;;;;;;;;;4988189;28;20034;-57
2022/09/24 02:11:10;;;;;;;4.85;1.90;;;;;;;;;;4982283;28;20610;-59
2022/09/24 02:13:52;;;;;;;6.97;2.80;;;;;;;;;;4984252;28;20041;-58
2022/09/24 02:16:21;;;;;;;4.55;2.30;;;;;;;;;;4987648;28;20042;-59
2022/09/24 02:18:51;;;;;;;6.90;2.30;;;;;;;;;;4986654;28;20049;-59
2022/09/24 02:21:18;;;;;;;5.95;2.50;;;;;;;;;;5005894;28;20052;-59
2022/09/24 02:23:56;;;;;;;5.25;2.45;;;;;;;;;;5000048;28;20834;-60
2022/09/24 02:26:22;;;;;;;4.63;2.40;;;;;;;;;;4984131;28;20387;-59
2022/09/24 02:28:48;;;;;;;8.02;2.65;;;;;;;;;;4983167;28;20022;-59
2022/09/24 02:31:22;;;;;;;3.47;2.20;;;;;;;;;;4982683;28;20057;-59
2022/09/24 02:36:34;;;;;;;15.07;3.25;;;;;;;;;;5005826;28;20035;-60
2022/09/24 02:39:00;;;;;;;4.95;2.28;;;;;;;;;;5005274;28;20487;-60
2022/09/24 02:41:27;;;;;;;4.88;2.45;;;;;;;;;;5004594;28;20034;-60
2022/09/24 02:43:53;;;;;;;4.22;2.15;;;;;;;;;;5002436;28;20046;-60
2022/09/24 02:46:18;;;;;;;5.10;2.63;;;;;;;;;;5006177;28;20046;-60
2022/09/24 02:48:44;;;;;;;6.25;2.70;;;;;;;;;;5004687;28;20084;-60
2022/09/24 02:51:09;;;;;;;5.50;2.60;;;;;;;;;;5001890;28;20022;-60
2022/09/24 02:53:35;;;;;;;3.40;2.22;;;;;;;;;;5003184;28;20030;-58
2022/09/24 02:56:01;;;;;;;4.90;2.20;;;;;;;;;;5004144;28;20656;-60
2022/09/24 02:58:28;;;;;;;4.60;2.60;;;;;;;;;;5004902;28;20025;-59
2022/09/24 03:00:56;;;;;;;4.32;2.10;;;;;;;;;;5006377;28;20054;-60
2022/09/24 03:03:22;;;;;;;6.07;2.13;;;;;;;;;;5006158;28;20037;-60
2022/09/24 03:05:53;;;;;;;2.90;2.10;;;;;;;;;;5004337;28;20030;-60
2022/09/24 03:08:20;;;;;;;2.40;2.20;;;;;;;;;;5003250;28;20063;-61
2022/09/24 03:10:45;;;;;;;7.22;2.53;;;;;;;;;;5002862;28;20128;-60
2022/09/24 03:13:12;;;;;;;5.85;2.47;;;;;;;;;;5008701;28;20565;-60
2022/09/24 03:15:37;;;;;;;3.88;2.65;;;;;;;;;;5001839;28;20034;-60
2022/09/24 03:18:03;;;;;;;6.88;2.75;;;;;;;;;;5002122;28;20033;-60
2022/09/24 03:20:29;;;;;;;5.32;2.20;;;;;;;;;;5006868;28;20050;-60
2022/09/24 03:22:54;;;;;;;4.53;2.10;;;;;;;;;;5005453;28;20061;-58
2022/09/24 03:25:20;;;;;;;4.30;2.35;;;;;;;;;;5006512;28;20042;-60
2022/09/24 03:27:45;;;;;;;6.80;2.60;;;;;;;;;;5004547;28;20371;-60
2022/09/24 03:32:56;;;;;;;2.50;2.30;;;;;;;;;;5003919;28;20026;-59
2022/09/24 03:35:22;;;;;;;3.55;2.20;;;;;;;;;;5004478;28;20085;-60
2022/09/24 03:37:47;;;;;;;3.75;2.40;;;;;;;;;;5003651;28;20097;-46
2022/09/24 03:40:13;;;;;;;4.38;2.33;;;;;;;;;;5003506;28;20035;-59
2022/09/24 03:42:39;;;;;;;3.13;2.55;;;;;;;;;;5007796;28;20039;-60
2022/09/24 03:45:05;;;;;;;3.33;2.22;;;;;;;;;;5001527;28;20422;-60
2022/09/24 03:47:31;;;;;;;2.33;2.20;;;;;;;;;;5007276;28;20044;-60
2022/09/24 03:49:57;;;;;;;10.73;2.72;;;;;;;;;;5006494;28;20193;-60
2022/09/24 03:52:24;;;;;;;2.20;2.10;;;;;;;;;;5002765;28;20046;-60
2022/09/24 03:54:49;;;;;;;3.33;2.20;;;;;;;;;;5001359;28;20030;-60
2022/09/24 03:57:15;;;;;;;2.30;2.10;;;;;;;;;;5006591;28;20045;-60
2022/09/24 03:59:41;;;;;;;3.42;2.30;;;;;;;;;;5005950;28;20037;-60
2022/09/24 04:02:08;;;;;;;2.50;2.30;;;;;;;;;;5007888;28;20041;-60
2022/09/24 04:04:34;;;;;;;4.20;2.33;;;;;;;;;;5008984;28;20038;-60
2022/09/24 04:06:59;;;;;;;3.60;1.98;;;;;;;;;;5010594;28;20018;-60
2022/09/24 04:09:25;;;;;;;6.18;2.30;;;;;;;;;;5009348;28;20099;-60
2022/09/24 04:11:52;;;;;;;2.72;2.40;;;;;;;;;;5009859;28;20137;-60
2022/09/24 04:14:19;;;;;;;3.95;2.25;;;;;;;;;;5007838;28;20574;-60
2022/09/24 04:16:45;;;;;;;5.85;2.42;;;;;;;;;;5008867;28;20069;-60
2022/09/24 04:19:12;;;;;;;3.90;2.13;;;;;;;;;;5006153;28;20117;-60
2022/09/24 04:21:37;;;;;;;5.07;2.13;;;;;;;;;;5009436;28;20034;-59
2022/09/24 04:24:04;;;;;;;2.38;2.17;;;;;;;;;;5008079;28;20056;-60
2022/09/24 04:26:29;;;;;;;4.95;2.40;;;;;;;;;;5008588;28;20104;-59
2022/09/24 04:28:58;;;;;;;4.75;2.40;;;;;;;;;;5004566;28;20125;-59
2022/09/24 04:31:25;;;;;;;5.53;2.20;;;;;;;;;;5004248;28;20040;-60
2022/09/24 04:33:51;;;;;;;2.75;2.40;;;;;;;;;;5007356;28;20101;-60
2022/09/24 04:36:17;;;;;;;6.68;2.33;;;;;;;;;;5009319;28;20112;-59
2022/09/24 04:38:45;;;;;;;4.32;2.30;;;;;;;;;;5006194;28;20112;-60
2022/09/24 04:41:11;;;;;;;4.50;2.10;;;;;;;;;;5009004;28;20034;-60
2022/09/24 04:43:37;;;;;;;3.75;2.20;;;;;;;;;;5006570;28;20018;-60
2022/09/24 04:46:03;;;;;;;4.65;2.30;;;;;;;;;;5008493;28;20062;-60
2022/09/24 04:48:29;;;;;;;2.45;2.15;;;;;;;;;;5008288;28;20479;-60
2022/09/24 04:50:55;;;;;;;4.03;2.05;;;;;;;;;;5006861;28;20049;-58
2022/09/24 04:53:21;;;;;;;2.88;2.53;;;;;;;;;;5009488;28;20030;-60
2022/09/24 04:55:47;;;;;;;3.65;2.30;;;;;;;;;;5006002;28;20063;-60
2022/09/24 04:58:13;;;;;;;3.38;2.22;;;;;;;;;;5007804;28;20029;-59
2022/09/24 05:00:38;;;;;;;3.55;2.30;;;;;;;;;;5005802;28;20385;-60
2022/09/24 05:03:04;;;;;;;4.05;2.15;;;;;;;;;;5005530;28;20049;-59
2022/09/24 05:05:31;;;;;;;3.50;2.30;;;;;;;;;;5005964;28;20112;-60
2022/09/24 05:07:57;;;;;;;3.35;2.10;;;;;;;;;;5006304;28;20049;-60
2022/09/24 05:10:25;;;;;;;5.38;2.05;;;;;;;;;;5007160;28;20180;-59
2022/09/24 05:12:51;;;;;;;3.85;2.33;;;;;;;;;;5006369;28;20520;-60
2022/09/24 05:15:18;;;;;;;2.83;2.30;;;;;;;;;;5008970;28;20046;-60
2022/09/24 05:17:45;;;;;;;4.80;2.00;;;;;;;;;;5007614;28;20505;-60
2022/09/24 05:20:10;;;;;;;3.17;2.17;;;;;;;;;;5007550;28;20052;-60
2022/09/24 05:22:48;;;;;;;2.40;2.10;;;;;;;;;;5004353;28;20117;-59
2022/09/24 05:25:15;;;;;;;3.70;2.63;;;;;;;;;;5008145;28;20049;-60
2022/09/24 05:27:49;;;;;;;3.10;2.40;;;;;;;;;;5004008;28;20022;-59
2022/09/24 05:30:16;;;;;;;2.47;2.28;;;;;;;;;;5005795;28;20046;-60
2022/09/24 05:32:42;;;;;;;5.88;2.40;;;;;;;;;;5008437;28;20059;-60
2022/09/24 05:35:08;;;;;;;4.03;2.60;;;;;;;;;;5005111;28;20073;-60
2022/09/24 05:37:35;;;;;;;7.68;2.53;;;;;;;;;;5005966;28;20018;-60
2022/09/24 05:40:46;;;;;;;3.85;2.30;;;;;;;;;;5003568;28;20066;-61
2022/09/24 05:42:48;;;;;;;3.42;2.40;;;;;;;;;;5007745;28;20125;-60
2022/09/24 05:45:16;;;;;;;4.35;2.13;;;;;;;;;;5004439;28;20482;-60
2022/09/24 05:47:45;;;;;;;2.33;2.10;;;;;;;;;;5008856;28;20168;-60
2022/09/24 05:50:12;;;;;;;4.68;2.33;;;;;;;;;;5002764;28;20141;-60
2022/09/24 05:52:39;;;;;;;2.58;2.38;;;;;;;;;;5008098;28;20029;-60
2022/09/24 05:55:05;;;;;;;2.50;2.30;;;;;;;;;;5003788;28;20061;-60
2022/09/24 05:57:33;;;;;;;2.40;2.20;;;;;;;;;;5008513;28;20386;-60
2022/09/24 05:59:58;;;;;;;3.53;2.80;;;;;;;;;;5003180;28;20129;-60
2022/09/24 06:02:24;;;;;;;4.25;2.15;;;;;;;;;;5004870;28;20122;-60
2022/09/24 06:04:49;;;;;;;8.68;2.63;;;;;;;;;;5006061;28;20038;-60
2022/09/24 06:07:15;;;;;;;4.75;2.55;;;;;;;;;;5003113;28;20049;-61
2022/09/24 06:09:41;;;;;;;3.38;2.20;;;;;;;;;;5007904;28;20072;-60
2022/09/24 06:12:07;;;;;;;4.03;2.35;;;;;;;;;;5004741;28;20080;-60
2022/09/24 06:14:33;;;;;;;3.30;2.40;;;;;;;;;;5005603;28;20128;-60
2022/09/24 06:16:58;;;;;;;4.13;2.65;;;;;;;;;;5007792;28;20426;-59
2022/09/24 06:19:24;;;;;;;4.25;2.47;;;;;;;;;;5006176;28;20050;-60
2022/09/24 06:21:50;;;;;;;3.47;2.28;;;;;;;;;;5004789;28;20026;-60
2022/09/24 06:24:15;;;;;;;8.48;2.80;;;;;;;;;;5008030;28;20034;-59
2022/09/24 06:26:41;;;;;;;3.80;2.33;;;;;;;;;;5003645;28;20030;-60
2022/09/24 06:29:06;;;;;;;4.25;2.72;;;;;;;;;;5004556;28;20046;-60
2022/09/24 06:31:33;;;;;;;5.53;2.97;;;;;;;;;;5004712;28;20028;-60
2022/09/24 06:33:59;;;;;;;6.25;3.45;;;;;;;;;;5004545;28;20049;-60
2022/09/24 06:36:25;;;;;;;7.20;3.53;;;;;;;;;;5003556;28;20033;-60
2022/09/24 06:38:51;;;;;;;7.07;3.53;;;;;;;;;;5007763;28;20049;-60
2022/09/24 06:41:17;;;;;;;5.15;3.65;;;;;;;;;;5006514;28;20040;-60
2022/09/24 06:43:43;;;;;;;6.13;4.05;;;;;;;;;;5002135;28;20522;-60
2022/09/24 06:46:09;;;;;;;5.82;3.88;;;;;;;;;;5004823;28;20096;-60
2022/09/24 06:48:36;;;;;;;6.15;4.28;;;;;;;;;;5008069;28;20045;-59
2022/09/24 06:51:06;;;;;;;7.85;4.60;;;;;;;;;;5004106;28;20030;-61
2022/09/24 06:53:32;;;;;;;8.75;4.78;;;;;;;;;;5004416;28;20041;-60
2022/09/24 06:56:02;;;;;;;6.38;4.35;;;;;;;;;;5004548;28;20390;-60
2022/09/24 06:58:28;;;;;;;11.93;5.38;;;;;;;;;;5008196;28;20053;-60
2022/09/24 07:00:58;;;;;;;8.70;4.80;;;;;;;;;;5004530;28;20077;-60
2022/09/24 07:03:26;;;;;;;9.43;5.28;;;;;;;;;;5002717;28;20084;-60
2022/09/24 07:05:51;;;;;;;10.55;5.07;;;;;;;;;;5005051;28;20107;-60
2022/09/24 07:08:17;;;;;;;9.40;5.60;;;;;;;;;;5002626;28;20474;-59
2022/09/24 07:10:45;;;;;;;9.90;4.78;;;;;;;;;;5000897;28;20049;-60
2022/09/24 07:13:14;;;;;;;10.07;5.55;;;;;;;;;;5007041;28;20502;-60
2022/09/24 07:15:41;;;;;;;7.72;5.00;;;;;;;;;;5002566;28;20498;-59
2022/09/24 07:18:07;;;;;;;10.55;5.15;;;;;;;;;;5004870;28;20045;-60
2022/09/24 07:20:35;;;;;;;8.40;5.53;;;;;;;;;;5005007;28;20049;-60
2022/09/24 07:23:05;;;;;;;11.48;5.90;;;;;;;;;;5004914;28;20030;-60
2022/09/24 07:25:31;;;;;;;9.00;5.50;;;;;;;;;;5002893;28;20103;-60
2022/09/24 07:28:05;;;;;;;11.32;6.15;;;;;;;;;;4999277;28;20387;-60
2022/09/24 07:30:32;;;;;;;9.05;5.35;;;;;;;;;;5004033;28;20042;-60
2022/09/24 07:32:58;;;;;;;8.40;5.40;;;;;;;;;;5005446;28;20540;-60
2022/09/24 07:35:25;;;;;;;11.25;6.13;;;;;;;;;;5004353;28;20050;-60
2022/09/24 07:38:02;;;;;;;7.72;5.72;;;;;;;;;;5008167;28;20038;-60
2022/09/24 07:40:28;;;;;;;8.40;5.50;;;;;;;;;;5005704;28;20042;-60
2022/09/24 07:42:54;;;;;;;8.43;4.95;;;;;;;;;;5008123;28;20030;-60
2022/09/24 07:45:21;;;;;;;7.38;4.85;;;;;;;;;;5006421;28;20437;-60
2022/09/24 07:47:47;;;;;;;6.45;4.75;;;;;;;;;;5009300;28;20481;-60
2022/09/24 07:50:12;;;;;;;6.82;4.78;;;;;;;;;;5009823;28;20042;-60
2022/09/24 07:52:38;;;;;;;11.40;4.45;;;;;;;;;;5005320;28;20426;-60
2022/09/24 07:55:05;;;;;;;7.78;5.53;;;;;;;;;;5008392;28;20110;-60
2022/09/24 07:57:30;;;;;;;11.15;5.60;;;;;;;;;;5006673;28;20025;-60
2022/09/24 07:59:56;;;;;;;11.18;6.72;;;;;;;;;;5003146;28;20038;-60
2022/09/24 08:02:22;;;;;;;14.50;6.60;;;;;;;;;;5005894;28;20026;-61
2022/09/24 08:04:48;;;;;;;11.80;6.07;;;;;;;;;;5008030;28;20136;-60
2022/09/24 08:07:13;;;;;;;8.98;5.50;;;;;;;;;;5005817;28;20034;-60
2022/09/24 08:09:39;;;;;;;9.75;5.10;;;;;;;;;;5005815;28;20080;-60
2022/09/24 08:12:06;;;;;;;5.72;4.60;;;;;;;;;;5008758;28;20112;-61
2022/09/24 08:14:32;;;;;;;6.60;4.75;;;;;;;;;;5005287;28;20039;-60
2022/09/24 08:16:58;;;;;;;6.78;4.03;;;;;;;;;;5003667;28;20034;-60
2022/09/24 08:19:23;;;;;;;5.22;3.75;;;;;;;;;;5000961;28;20050;-60
2022/09/24 08:21:49;;;;;;;4.43;3.50;;;;;;;;;;5008335;28;20033;-60
2022/09/24 08:24:16;;;;;;;7.35;3.28;;;;;;;;;;5006340;28;20045;-60
2022/09/24 08:26:41;;;;;;;5.75;2.97;;;;;;;;;;5006835;28;20034;-60
2022/09/24 08:29:07;;;;;;;6.45;3.28;;;;;;;;;;5006428;28;20042;-60
2022/09/24 08:31:33;;;;;;;7.35;4.22;;;;;;;;;;5005571;28;20530;-60
2022/09/24 08:34:00;;;;;;;5.57;3.75;;;;;;;;;;5006015;28;21967;-60
2022/09/24 08:36:26;;;;;;;7.40;3.60;;;;;;;;;;5008253;28;20033;-61
2022/09/24 08:38:55;;;;;;;5.65;3.83;;;;;;;;;;5008276;28;20129;-60
2022/09/24 08:41:32;;;;;;;7.85;3.95;;;;;;;;;;5005061;28;20057;-60
2022/09/24 08:44:03;;;;;;;6.70;3.78;;;;;;;;;;5003219;28;20137;-60
2022/09/24 08:49:39;;;;;;;5.28;3.95;;;;;;;;;;5006551;28;20046;-60
2022/09/24 08:52:25;;;;;;;6.05;3.83;;;;;;;;;;5004891;28;20060;-60
2022/09/24 08:54:53;;;;;;;5.28;3.90;;;;;;;;;;5005612;28;20042;-61
2022/09/24 08:57:20;;;;;;;11.45;4.57;;;;;;;;;;5005471;28;20053;-61
2022/09/24 08:59:51;;;;;;;7.50;4.00;;;;;;;;;;5007582;28;20421;-61
2022/09/24 09:02:31;;;;;;;8.02;4.22;;;;;;;;;;5005308;28;20039;-60
2022/09/24 09:05:16;;;;;;;5.63;3.40;;;;;;;;;;5007205;28;20065;-60
2022/09/24 09:07:50;;;;;;;5.80;4.22;;;;;;;;;;5005159;28;20029;-61
2022/09/24 09:10:26;;;;;;;4.38;3.50;;;;;;;;;;5007168;28;20056;-58
2022/09/24 09:13:17;;;;;;;6.70;3.95;;;;;;;;;;5006829;28;20057;-60
2022/09/24 09:15:48;;;;;;;4.57;3.08;;;;;;;;;;5002601;28;20046;-60
2022/09/24 09:18:22;;;;;;;8.15;2.80;;;;;;;;;;5005940;28;20038;-61
2022/09/24 09:20:48;;;;;;;9.75;3.28;;;;;;;;;;5006903;28;20062;-61
2022/09/24 09:23:36;;;;;;;10.30;3.17;;;;;;;;;;5006456;28;20495;-61
2022/09/24 09:26:01;;;;;;;4.80;2.85;;;;;;;;;;5004624;28;20084;-60
2022/09/24 09:28:28;;;;;;;3.35;2.63;;;;;;;;;;5007958;28;20068;-60
2022/09/24 09:31:25;;;;;;;4.80;3.25;;;;;;;;;;5004159;28;20038;-61
2022/09/24 09:34:17;;;;;;;7.70;2.55;;;;;;;;;;5006095;28;20060;-61
2022/09/24 09:37:24;;;;;;;9.60;2.58;;;;;;;;;;5006576;28;20485;-61
2022/09/24 09:39:50;;;;;;;4.75;2.97;;;;;;;;;;4981840;28;20071;-61
2022/09/24 09:42:34;;;;;;;7.43;3.20;;;;;;;;;;4984692;28;20502;-60
2022/09/24 09:45:14;;;;;;;5.30;3.20;;;;;;;;;;4984457;28;20065;-60
2022/09/24 09:47:53;;;;;;;6.85;3.22;;;;;;;;;;4983779;28;20724;-60
2022/09/24 09:50:40;;;;;;;11.38;2.95;;;;;;;;;;4984015;28;20473;-61
2022/09/24 09:53:18;;;;;;;5.68;3.13;;;;;;;;;;4982705;28;20570;-61
2022/09/24 09:55:51;;;;;;;5.93;3.00;;;;;;;;;;4982082;28;20069;-60
2022/09/24 09:58:20;;;;;;;4.20;3.30;;;;;;;;;;4985951;28;20041;-60
2022/09/24 10:00:48;;;;;;;2.95;2.58;;;;;;;;;;4985947;28;20503;-61
2022/09/24 10:03:23;;;;;;;4.50;2.33;;;;;;;;;;4985308;28;20483;-61
2022/09/24 10:05:54;;;;;;;3.50;2.55;;;;;;;;;;4980018;28;20463;-60
2022/09/24 10:08:21;;;;;;;2.75;2.40;;;;;;;;;;4986312;28;20533;-60
2022/09/24 10:10:58;;;;;;;2.40;2.20;;;;;;;;;;4984452;28;20038;-62
2022/09/24 10:13:25;;;;;;;2.47;2.25;;;;;;;;;;4990769;28;20042;-61
2022/09/24 10:15:57;;;;;;;2.50;2.08;;;;;;;;;;5003707;28;20390;-61
2022/09/24 10:18:41;;;;;;;3.58;1.67;;;;;;;;;;5005971;28;20372;-61
2022/09/24 10:21:14;;;;;;;1.67;1.58;;;;;;;;;;5005122;28;20046;-60
2022/09/24 10:23:48;;;;;;;3.30;1.77;;;;;;;;;;5002595;28;20045;-61
2022/09/24 10:26:14;;;;;;;1.48;1.38;;;;;;;;;;5007139;28;20072;-62
2022/09/24 10:31:31;;;;;;;1.73;1.63;;;;;;;;;;5005191;28;20030;-61
2022/09/24 10:33:59;;;;;;;5.68;1.50;;;;;;;;;;5002262;28;20050;-61
2022/09/24 10:36:28;;;;;;;1.63;1.30;;;;;;;;;;5006186;28;20045;-61
2022/09/24 10:39:11;;;;;;;1.58;1.48;;;;;;;;;;5006182;28;20044;-61
2022/09/24 10:41:37;;;;;;;5.05;1.60;;;;;;;;;;4999209;28;20042;-60
2022/09/24 10:44:10;;;;;;;3.35;1.50;;;;;;;;;;5002006;28;20038;-61
2022/09/24 10:47:03;;;;;;;2.22;1.60;;;;;;;;;;5000482;28;20080;-61
2022/09/24 10:49:36;;;;;;;2.15;1.52;;;;;;;;;;5002208;28;20494;-61
2022/09/24 10:52:24;;;;;;;1.42;1.33;;;;;;;;;;5001475;28;20029;-62
2022/09/24 10:55:27;;;;;;;1.20;1.10;;;;;;;;;;5000023;28;20497;-61
2022/09/24 10:58:05;;;;;;;3.05;1.48;;;;;;;;;;5000897;28;20497;-61
2022/09/24 11:01:03;;;;;;;1.90;1.80;;;;;;;;;;5000409;28;20636;-61
2022/09/24 11:03:41;;;;;;;2.63;1.80;;;;;;;;;;5000268;28;20026;-61
2022/09/24 11:06:38;;;;;;;2.17;1.58;;;;;;;;;;5002267;28;20407;-61
2022/09/24 11:09:14;;;;;;;2.65;1.48;;;;;;;;;;5000952;28;20466;-61
2022/09/24 11:11:51;;;;;;;1.60;1.50;;;;;;;;;;5001221;28;20474;-61
2022/09/24 11:14:32;;;;;;;1.80;1.30;;;;;;;;;;5002827;28;20056;-61
2022/09/24 11:17:32;;;;;;;1.98;1.40;;;;;;;;;;5001990;28;20037;-61
2022/09/24 11:20:26;;;;;;;1.92;1.40;;;;;;;;;;5000491;28;20097;-62
2022/09/24 11:22:58;;;;;;;2.05;1.52;;;;;;;;;;5001914;28;20109;-61
2022/09/24 11:25:53;;;;;;;1.55;1.45;;;;;;;;;;4999123;28;20042;-61
2022/09/24 11:28:37;;;;;;;1.30;1.20;;;;;;;;;;5002050;28;20117;-61
2022/09/24 11:31:28;;;;;;;1.65;1.50;;;;;;;;;;4982742;28;20725;-62
2022/09/24 11:34:14;;;;;;;1.60;1.50;;;;;;;;;;4981757;28;20057;-61
2022/09/24 11:37:10;;;;;;;1.30;1.30;;;;;;;;;;4985615;28;20036;-61
2022/09/24 11:39:48;;;;;;;4.40;1.88;;;;;;;;;;4982097;28;20038;-61
2022/09/24 11:42:35;;;;;;;5.07;2.00;;;;;;;;;;4985380;28;20046;-61
2022/09/24 11:45:01;;;;;;;1.85;1.50;;;;;;;;;;4995120;28;20045;-61
2022/09/24 11:48:05;;;;;;;2.90;1.60;;;;;;;;;;5005311;28;20050;-61
2022/09/24 11:50:46;;;;;;;1.38;1.23;;;;;;;;;;5003090;28;20042;-61
2022/09/24 11:53:37;;;;;;;2.55;1.30;;;;;;;;;;5003388;28;20061;-62
2022/09/24 11:56:16;;;;;;;2.05;1.63;;;;;;;;;;5001718;28;21964;-61
2022/09/24 11:58:48;;;;;;;3.40;1.60;;;;;;;;;;5003827;28;20169;-62
2022/09/24 12:01:21;;;;;;;1.63;1.35;;;;;;;;;;5000911;28;20049;-61
2022/09/24 12:04:03;;;;;;;1.92;1.60;;;;;;;;;;5001639;28;20042;-61
2022/09/24 12:06:34;;;;;;;1.90;1.80;;;;;;;;;;4997840;28;20030;-61
2022/09/24 12:09:15;;;;;;;3.15;1.65;;;;;;;;;;4998611;28;20030;-61
2022/09/24 12:11:48;;;;;;;8.00;1.70;;;;;;;;;;5001316;28;20529;-60
2022/09/24 12:14:50;;;;;;;2.42;1.83;;;;;;;;;;4998181;28;20061;-61
2022/09/24 12:17:21;;;;;;;4.53;1.60;;;;;;;;;;5000788;28;20037;-61
2022/09/24 12:19:55;;;;;;;2.55;1.67;;;;;;;;;;4999030;28;20496;-60
2022/09/24 12:22:22;;;;;;;3.40;1.55;;;;;;;;;;5000476;28;20037;-61
2022/09/24 12:24:53;;;;;;;2.70;1.40;;;;;;;;;;5001149;28;20088;-60
2022/09/24 12:27:31;;;;;;;1.67;1.52;;;;;;;;;;5006204;28;20073;-61
2022/09/24 12:33:34;;;;;;;2.88;1.77;;;;;;;;;;4986900;28;20565;-61
2022/09/24 12:36:18;;;;;;;2.97;1.30;;;;;;;;;;4978582;28;20046;-61
2022/09/24 12:38:52;;;;;;;2.97;1.58;;;;;;;;;;4981442;28;20061;-61
2022/09/24 12:41:30;;;;;;;1.55;1.45;;;;;;;;;;4983571;28;20053;-61
2022/09/24 12:43:59;;;;;;;1.30;1.20;;;;;;;;;;4983401;28;20058;-61
2022/09/24 12:46:40;;;;;;;2.97;1.75;;;;;;;;;;4980678;28;20487;-60
2022/09/24 12:49:27;;;;;;;2.28;1.40;;;;;;;;;;4986685;28;20049;-60
2022/09/24 12:52:16;;;;;;;1.30;1.15;;;;;;;;;;5004957;28;20105;-61
2022/09/24 12:54:43;;;;;;;4.10;1.80;;;;;;;;;;5001270;28;20097;-61
2022/09/24 12:57:21;;;;;;;3.00;1.20;;;;;;;;;;5001728;28;20037;-61
2022/09/24 12:59:54;;;;;;;2.20;1.40;;;;;;;;;;5007046;28;20037;-61
2022/09/24 13:02:20;;;;;;;2.47;1.60;;;;;;;;;;5005790;28;20037;-61
2022/09/24 13:05:02;;;;;;;1.77;1.52;;;;;;;;;;4992784;28;20049;-61
2022/09/24 13:07:33;;;;;;;3.42;1.35;;;;;;;;;;4983567;28;20066;-61
2022/09/24 13:10:14;;;;;;;2.42;1.38;;;;;;;;;;4982525;28;20035;-61
2022/09/24 13:12:41;;;;;;;1.83;1.70;;;;;;;;;;4981127;28;20030;-61
2022/09/24 13:15:22;;;;;;;4.80;1.33;;;;;;;;;;4983263;28;20042;-61
2022/09/24 13:18:04;;;;;;;1.63;1.33;;;;;;;;;;4985747;28;20026;-61
2022/09/24 13:20:31;;;;;;;2.25;1.70;;;;;;;;;;4983744;28;20122;-61
2022/09/24 13:23:19;;;;;;;5.03;1.30;;;;;;;;;;4985800;28;20474;-61
2022/09/24 13:26:02;;;;;;;7.90;1.80;;;;;;;;;;4996229;28;20073;-62
2022/09/24 13:28:59;;;;;;;3.08;1.90;;;;;;;;;;5003660;28;20084;-61
2022/09/24 13:31:28;;;;;;;3.13;1.27;;;;;;;;;;4987252;28;20062;-61
2022/09/24 13:34:08;;;;;;;1.58;1.48;;;;;;;;;;4986865;28;20042;-61
2022/09/24 13:36:58;;;;;;;1.33;1.23;;;;;;;;;;5004694;28;20052;-61
2022/09/24 13:39:50;;;;;;;1.85;1.58;;;;;;;;;;5004834;28;20495;-61
2022/09/24 13:42:38;;;;;;;;;;;;;;;;;;5004939;28;20512;-59
2022/09/24 13:45:10;;;;;;;2.30;1.48;;;;;;;;;;5003853;28;19932;-61
2022/09/24 13:47:41;;;;;;;;;;;;;;;;;;5003339;28;20100;-62
2022/09/24 13:50:11;;;;;;;1.50;1.08;;;;;;;;;;5001666;28;19922;-61
2022/09/24 13:52:52;;;;;;;3.20;1.48;;;;;;;;;;5005775;28;20152;-61
2022/09/24 13:55:25;;;;;;;2.55;1.40;;;;;;;;;;5005511;28;20786;-61
2022/09/24 13:57:50;;;;;;;1.85;1.30;;;;;;;;;;5002006;28;20066;-61
2022/09/24 14:00:20;;;;;;;1.83;1.30;;;;;;;;;;5003121;28;20054;-59
2022/09/24 14:03:03;;;;;;;1.77;1.42;;;;;;;;;;5004667;28;20441;-61
2022/09/24 14:05:33;;;;;;;2.55;1.58;;;;;;;;;;5003716;28;20529;-61
2022/09/24 14:08:11;;;;;;;1.40;1.30;;;;;;;;;;5004943;28;20109;-61
2022/09/24 14:10:38;;;;;;;3.90;1.52;;;;;;;;;;5001991;28;20065;-61
2022/09/24 14:13:16;;;;;;;3.78;2.17;;;;;;;;;;5003717;28;20022;-61
2022/09/24 14:15:59;;;;;;;1.42;1.33;;;;;;;;;;5005800;28;20042;-61
2022/09/24 14:18:26;;;;;;;1.27;1.17;;;;;;;;;;5004739;28;20056;-61
2022/09/24 14:21:04;;;;;;;1.35;1.35;;;;;;;;;;5003868;28;20045;-61
2022/09/24 14:23:37;;;;;;;2.72;1.30;;;;;;;;;;5003145;28;20018;-61
2022/09/24 14:26:03;;;;;;;2.17;1.23;;;;;;;;;;5005505;28;20433;-61
2022/09/24 14:28:31;;;;;;;1.58;1.30;;;;;;;;;;5005276;28;20360;-61
2022/09/24 14:30:58;;;;;;;4.68;1.40;;;;;;;;;;5001972;28;20053;-61
2022/09/24 14:33:27;;;;;;;1.67;1.40;;;;;;;;;;5005117;28;20089;-61
2022/09/24 14:35:55;;;;;;;4.05;1.40;;;;;;;;;;5003629;28;20038;-61
2022/09/24 14:38:27;;;;;;;2.38;1.48;;;;;;;;;;5006116;28;20050;-61
2022/09/24 14:41:03;;;;;;;2.17;1.33;;;;;;;;;;5003003;28;20033;-61
2022/09/24 14:43:46;;;;;;;1.45;1.35;;;;;;;;;;5003435;28;20030;-61
2022/09/24 14:46:29;;;;;;;2.08;1.50;;;;;;;;;;5002017;28;20502;-62
2022/09/24 14:49:21;;;;;;;1.52;1.35;;;;;;;;;;5002087;28;20049;-61
2022/09/24 14:52:01;;;;;;;1.60;1.40;;;;;;;;;;5001737;28;20474;-61
2022/09/24 14:54:33;;;;;;;1.08;1.08;;;;;;;;;;5002025;28;20034;-62
2022/09/24 14:57:17;;;;;;;1.42;1.20;;;;;;;;;;5002929;28;20044;-61
2022/09/24 14:59:43;;;;;;;4.15;1.70;;;;;;;;;;5000595;28;20384;-61
2022/09/24 15:02:23;;;;;;;3.75;1.73;;;;;;;;;;5003430;28;20037;-61
2022/09/24 15:04:55;;;;;;;6.68;1.40;;;;;;;;;;5004180;28;20042;-61
2022/09/24 15:07:24;;;;;;;7.97;2.38;;;;;;;;;;5002035;28;20049;-61
2022/09/24 15:09:51;;;;;;;2.67;1.92;;;;;;;;;;5002031;28;20042;-61
2022/09/24 15:12:26;;;;;;;1.23;1.13;;;;;;;;;;5001488;28;20864;-61
2022/09/24 15:14:56;;;;;;;5.07;2.15;;;;;;;;;;5003178;28;20058;-61
2022/09/24 15:17:23;;;;;;;2.28;1.45;;;;;;;;;;5002525;28;20445;-62
2022/09/24 15:19:53;;;;;;;1.65;1.50;;;;;;;;;;5001892;28;20049;-61
2022/09/24 15:22:21;;;;;;;3.92;2.38;;;;;;;;;;5000514;28;22208;-60
2022/09/24 15:24:49;;;;;;;14.98;9.35;;;;;;;;;;5001679;28;20034;-61
2022/09/24 15:27:22;;;;;;;28.98;14.95;;;;;;;;;;5002772;28;20474;-61
2022/09/24 15:29:49;;;;;;;7.50;5.00;;;;;;;;;;5001450;28;20038;-61